createdAt,value
2019-06-08T00:01:34.452Z,3.20
2019-06-08T00:04:08.749Z,3.50
2019-06-08T00:06:38.572Z,4.50
2019-06-08T00:09:08.660Z,3.20
2019-06-08T00:11:40.154Z,3.27
2019-06-08T00:14:09.866Z,4.17
2019-06-08T00:16:40.727Z,2.90
2019-06-08T00:19:10.285Z,4.50
2019-06-08T00:21:40.051Z,3.90
2019-06-08T00:24:09.591Z,4.87
2019-06-08T00:26:39.580Z,5.80
2019-06-08T00:29:14.196Z,3.47
2019-06-08T00:31:46.096Z,4.20
2019-06-08T00:34:24.850Z,3.57
2019-06-08T00:36:54.915Z,3.43
2019-06-08T00:39:25.414Z,3.23
2019-06-08T00:41:56.952Z,4.40
2019-06-08T00:44:31.740Z,3.47
2019-06-08T00:47:03.372Z,2.93
2019-06-08T00:49:37.776Z,4.13
2019-06-08T00:52:10.226Z,4.03
2019-06-08T00:54:42.323Z,3.33
2019-06-08T00:57:15.074Z,3.20
2019-06-08T00:59:52.279Z,8.67
2019-06-08T01:02:24.626Z,5.50
2019-06-08T01:05:03.048Z,3.63
2019-06-08T01:07:39.374Z,4.80
2019-06-08T01:10:11.690Z,4.47
2019-06-08T01:12:44.824Z,5.73
2019-06-08T01:15:16.914Z,6.27
2019-06-08T01:18:02.258Z,5.90
2019-06-08T01:20:38.895Z,4.20
2019-06-08T01:23:09.060Z,4.93
2019-06-08T01:25:41.136Z,3.90
2019-06-08T01:28:11.841Z,5.93
2019-06-08T01:30:42.406Z,5.70
2019-06-08T01:33:13.921Z,5.43
2019-06-08T01:35:45.776Z,5.73
2019-06-08T01:38:18.114Z,5.47
2019-06-08T01:40:49.839Z,4.13
2019-06-08T01:43:21.652Z,5.07
2019-06-08T01:45:53.759Z,4.57
2019-06-08T01:48:26.296Z,3.80
2019-06-08T01:50:55.968Z,6.63
2019-06-08T01:53:26.835Z,4.87
2019-06-08T01:55:58.113Z,3.90
2019-06-08T01:58:27.602Z,10.30
2019-06-08T02:00:59.226Z,7.27
2019-06-08T02:03:32.711Z,6.07
2019-06-08T02:06:04.766Z,6.87
2019-06-08T02:08:39.189Z,5.13
2019-06-08T02:11:10.736Z,4.30
2019-06-08T02:13:42.248Z,4.90
2019-06-08T02:16:12.672Z,6.30
2019-06-08T02:18:50.796Z,5.13
2019-06-08T02:21:20.112Z,5.07
2019-06-08T02:23:51.001Z,5.17
2019-06-08T02:26:22.158Z,4.80
2019-06-08T02:28:55.009Z,7.40
2019-06-08T02:31:27.839Z,6.27
2019-06-08T02:34:01.247Z,4.43
2019-06-08T02:36:37.583Z,4.50
2019-06-08T02:39:10.004Z,3.93
2019-06-08T02:41:40.834Z,5.77
2019-06-08T02:44:12.456Z,6.60
2019-06-08T02:46:42.889Z,3.10
2019-06-08T02:49:22.491Z,6.37
2019-06-08T02:51:54.422Z,5.23
2019-06-08T02:54:27.965Z,3.83
2019-06-08T02:57:00.626Z,6.77
2019-06-08T02:59:32.917Z,6.17
2019-06-08T03:02:04.562Z,4.97
2019-06-08T03:04:39.397Z,4.87
2019-06-08T03:07:11.365Z,2.80
2019-06-08T03:09:42.301Z,5.67
2019-06-08T03:12:11.863Z,5.10
2019-06-08T03:14:42.863Z,4.97
2019-06-08T03:17:13.014Z,3.67
2019-06-08T03:19:42.613Z,3.53
2019-06-08T03:22:12.220Z,2.63
2019-06-08T03:24:44.048Z,2.97
2019-06-08T03:27:13.458Z,5.43
2019-06-08T03:29:43.977Z,5.13
2019-06-08T03:32:14.240Z,4.57
2019-06-08T03:34:55.109Z,3.87
2019-06-08T03:37:18.068Z,3.83
2019-06-08T03:39:48.196Z,4.83
2019-06-08T03:42:19.533Z,4.73
2019-06-08T03:44:49.437Z,3.73
2019-06-08T03:47:19.028Z,2.93
2019-06-08T03:49:56.603Z,3.87
2019-06-08T03:52:20.806Z,3.63
2019-06-08T03:54:51.164Z,2.90
2019-06-08T03:57:22.548Z,3.43
2019-06-08T03:59:53.554Z,4.40
2019-06-08T04:02:23.202Z,4.50
2019-06-08T04:04:53.350Z,4.70
2019-06-08T04:07:24.323Z,3.30
2019-06-08T04:09:54.186Z,6.17
2019-06-08T04:12:24.973Z,5.87
2019-06-08T04:14:55.087Z,3.00
2019-06-08T04:17:24.710Z,3.67
2019-06-08T04:20:09.325Z,7.07
2019-06-08T04:22:26.703Z,6.67
2019-06-08T04:24:57.252Z,2.80
2019-06-08T04:27:27.055Z,5.47
2019-06-08T04:29:56.830Z,5.53
2019-06-08T04:32:26.355Z,4.93
2019-06-08T04:34:58.976Z,4.07
2019-06-08T04:37:29.083Z,2.63
2019-06-08T04:39:59.717Z,6.13
2019-06-08T04:42:30.047Z,4.83
2019-06-08T04:45:00.427Z,4.70
2019-06-08T04:47:31.164Z,5.43
2019-06-08T04:50:20.779Z,3.57
2019-06-08T04:52:36.250Z,3.67
2019-06-08T04:55:06.987Z,4.07
2019-06-08T04:57:36.762Z,4.73
2019-06-08T05:00:12.992Z,4.33
2019-06-08T05:02:44.039Z,4.50
2019-06-08T05:05:13.555Z,4.23
2019-06-08T05:07:44.288Z,3.87
2019-06-08T05:10:15.071Z,5.83
2019-06-08T05:12:47.841Z,4.50
2019-06-08T05:15:26.251Z,3.67
2019-06-08T05:17:58.118Z,4.53
2019-06-08T05:20:38.205Z,4.50
2019-06-08T05:23:07.594Z,4.13
2019-06-08T05:25:43.139Z,4.77
2019-06-08T05:28:17.561Z,7.30
2019-06-08T05:30:49.630Z,6.33
2019-06-08T05:33:21.533Z,7.83
2019-06-08T05:35:56.524Z,5.27
2019-06-08T05:38:26.436Z,5.17
2019-06-08T05:40:57.541Z,3.33
2019-06-08T05:43:29.413Z,4.30
2019-06-08T05:46:01.210Z,4.70
2019-06-08T05:48:31.259Z,10.53
2019-06-08T05:51:04.273Z,3.90
2019-06-08T05:53:39.694Z,5.23
2019-06-08T05:56:11.923Z,4.53
2019-06-08T05:58:43.955Z,3.60
2019-06-08T06:01:16.840Z,5.67
2019-06-08T06:03:48.899Z,6.93
2019-06-08T06:06:23.580Z,7.53
2019-06-08T06:08:55.481Z,3.33
2019-06-08T06:11:26.728Z,3.77
2019-06-08T06:13:57.007Z,5.10
2019-06-08T06:16:27.504Z,6.83
2019-06-08T06:18:58.751Z,3.90
2019-06-08T06:21:29.605Z,3.93
2019-06-08T06:24:02.982Z,13.93
2019-06-08T06:26:38.175Z,9.53
2019-06-08T06:29:08.600Z,7.33
2019-06-08T06:31:39.129Z,10.97
2019-06-08T06:34:10.409Z,4.37
2019-06-08T06:36:41.701Z,5.63
2019-06-08T06:39:13.230Z,4.43
2019-06-08T06:41:44.062Z,5.90
2019-06-08T06:44:14.236Z,3.13
2019-06-08T06:46:44.180Z,3.77
2019-06-08T06:49:14.799Z,3.57
2019-06-08T06:51:44.798Z,3.90
2019-06-08T06:54:14.592Z,5.17
2019-06-08T06:56:45.298Z,6.10
2019-06-08T06:59:15.948Z,6.23
2019-06-08T07:01:47.466Z,4.90
2019-06-08T07:04:17.898Z,7.50
2019-06-08T07:06:48.127Z,5.77
2019-06-08T07:09:19.524Z,5.50
2019-06-08T07:11:50.958Z,6.37
2019-06-08T07:14:27.295Z,5.60
2019-06-08T07:16:56.717Z,11.30
2019-06-08T07:19:26.603Z,10.60
2019-06-08T07:21:58.593Z,9.60
2019-06-08T07:24:28.946Z,6.93
2019-06-08T07:27:02.831Z,10.33
2019-06-08T07:29:33.149Z,9.33
2019-06-08T07:32:05.466Z,9.67
2019-06-08T07:34:40.984Z,8.97
2019-06-08T07:37:08.935Z,12.50
2019-06-08T07:39:40.979Z,9.33
2019-06-08T07:42:12.317Z,8.03
2019-06-08T07:44:43.568Z,9.70
2019-06-08T07:47:14.401Z,12.83
2019-06-08T07:49:51.125Z,7.67
2019-06-08T07:52:22.145Z,11.03
2019-06-08T07:54:54.684Z,8.40
2019-06-08T07:57:26.165Z,7.50
2019-06-08T07:59:56.337Z,9.63
2019-06-08T08:02:28.553Z,8.83
2019-06-08T08:04:58.856Z,6.30
2019-06-08T08:07:29.874Z,7.90
2019-06-08T08:10:00.408Z,6.67
2019-06-08T08:12:31.263Z,15.50
2019-06-08T08:15:00.835Z,6.13
2019-06-08T08:17:34.318Z,6.00
2019-06-08T08:20:03.389Z,6.20
2019-06-08T08:22:34.171Z,5.93
2019-06-08T08:25:05.086Z,5.50
2019-06-08T08:27:37.390Z,5.97
2019-06-08T08:30:08.447Z,6.30
2019-06-08T08:32:38.587Z,3.97
2019-06-08T08:35:09.405Z,5.43
2019-06-08T08:37:40.015Z,7.03
2019-06-08T08:40:09.894Z,4.80
2019-06-08T08:42:48.269Z,4.50
2019-06-08T08:45:20.088Z,4.47
2019-06-08T08:48:14.441Z,4.27
2019-06-08T08:50:29.207Z,6.67
2019-06-08T08:53:08.351Z,5.50
2019-06-08T08:55:40.140Z,5.37
2019-06-08T08:58:12.835Z,8.33
2019-06-08T09:00:44.363Z,6.80
2019-06-08T09:03:33.727Z,5.77
2019-06-08T09:06:04.687Z,5.50
2019-06-08T09:08:41.261Z,5.27
2019-06-08T09:11:12.976Z,7.00
2019-06-08T09:13:48.906Z,5.20
2019-06-08T09:16:31.054Z,6.43
2019-06-08T09:19:04.461Z,6.03
2019-06-08T09:21:38.506Z,6.57
2019-06-08T09:24:10.762Z,5.20
2019-06-08T09:27:03.996Z,4.00
2019-06-08T09:30:00.709Z,4.70
2019-06-08T09:32:34.182Z,5.13
2019-06-08T09:35:05.287Z,6.23
2019-06-08T09:37:37.572Z,6.87
2019-06-08T09:40:10.460Z,5.93
2019-06-08T09:42:44.264Z,8.17
2019-06-08T09:45:32.556Z,7.00
2019-06-08T09:48:10.515Z,5.10
2019-06-08T09:50:45.312Z,6.97
2019-06-08T09:53:28.482Z,5.53
2019-06-08T09:55:53.293Z,6.67
2019-06-08T09:58:31.651Z,5.37
2019-06-08T10:01:13.388Z,6.93
2019-06-08T10:03:48.246Z,7.43
2019-06-08T10:06:18.402Z,7.27
2019-06-08T10:08:50.317Z,7.77
2019-06-08T10:11:21.520Z,4.97
2019-06-08T10:13:54.502Z,8.03
2019-06-08T10:16:38.149Z,5.40
2019-06-08T10:19:12.643Z,7.63
2019-06-08T10:21:45.135Z,4.57
2019-06-08T10:24:17.086Z,3.60
2019-06-08T10:26:49.921Z,4.70
2019-06-08T10:29:26.276Z,3.93
2019-06-08T10:32:03.783Z,6.37
2019-06-08T10:34:38.633Z,7.47
2019-06-08T10:37:12.985Z,5.30
2019-06-08T10:39:49.365Z,5.33
2019-06-08T10:42:25.412Z,4.13
2019-06-08T10:44:59.334Z,5.30
2019-06-08T10:47:29.757Z,5.13
2019-06-08T10:50:09.146Z,3.73
2019-06-08T10:52:38.959Z,4.00
2019-06-08T10:55:10.352Z,4.27
2019-06-08T10:57:43.032Z,4.50
2019-06-08T11:00:22.658Z,4.73
2019-06-08T11:02:50.008Z,4.20
2019-06-08T11:05:21.868Z,6.30
2019-06-08T11:07:53.213Z,5.37
2019-06-08T11:10:25.483Z,2.03
2019-06-08T11:13:04.411Z,2.10
2019-06-08T11:18:24.265Z,2.07
2019-06-08T11:21:06.334Z,2.13
2019-06-08T11:23:41.599Z,3.70
2019-06-08T11:26:20.960Z,2.70
2019-06-08T11:28:53.521Z,4.33
2019-06-08T11:31:29.794Z,3.23
2019-06-08T11:34:02.659Z,1.97
2019-06-08T11:36:36.093Z,3.20
2019-06-08T11:39:11.317Z,2.80
2019-06-08T11:41:42.390Z,2.53
2019-06-08T11:44:14.824Z,4.17
2019-06-08T11:46:51.130Z,1.80
2019-06-08T11:49:23.526Z,1.80
2019-06-08T11:51:58.306Z,3.00
2019-06-08T11:54:49.530Z,2.47
2019-06-08T11:57:28.330Z,3.90
2019-06-08T12:00:10.763Z,2.73
2019-06-08T12:02:48.602Z,6.30
2019-06-08T12:05:18.452Z,3.20
2019-06-08T12:07:51.263Z,4.07
2019-06-08T12:10:21.976Z,4.20
2019-06-08T12:12:52.037Z,5.37
2019-06-08T12:15:33.363Z,5.23
2019-06-08T12:18:08.336Z,3.33
2019-06-08T12:20:42.398Z,3.90
2019-06-08T12:23:15.914Z,2.97
2019-06-08T12:25:50.087Z,3.63
2019-06-08T12:28:27.929Z,6.10
2019-06-08T12:31:00.993Z,4.87
2019-06-08T12:33:39.196Z,2.60
2019-06-08T12:36:20.985Z,3.93
2019-06-08T12:38:59.086Z,6.87
2019-06-08T12:41:33.997Z,4.83
2019-06-08T12:44:14.677Z,7.63
2019-06-08T12:46:44.029Z,4.63
2019-06-08T12:49:25.326Z,4.03
2019-06-08T12:51:59.877Z,4.87
2019-06-08T12:54:34.841Z,4.17
2019-06-08T12:57:13.419Z,3.63
2019-06-08T12:59:45.524Z,4.03
2019-06-08T13:02:22.037Z,4.57
2019-06-08T13:05:04.362Z,3.97
2019-06-08T13:07:38.535Z,6.47
2019-06-08T13:10:13.338Z,5.43
2019-06-08T13:12:43.528Z,5.70
2019-06-08T13:15:21.723Z,5.13
2019-06-08T13:17:55.056Z,4.67
2019-06-08T13:20:29.516Z,3.23
2019-06-08T13:23:04.470Z,4.43
2019-06-08T13:25:40.987Z,8.00
2019-06-08T13:28:15.413Z,6.63
2019-06-08T13:30:44.468Z,5.23
2019-06-08T13:33:16.753Z,8.27
2019-06-08T13:35:51.075Z,5.27
2019-06-08T13:38:23.156Z,4.57
2019-06-08T13:40:54.326Z,16.80
2019-06-08T13:43:28.278Z,7.60
2019-06-08T13:45:58.481Z,8.10
2019-06-08T13:48:28.478Z,7.60
2019-06-08T13:51:01.898Z,4.37
2019-06-08T13:53:38.159Z,6.50
2019-06-08T13:56:10.607Z,10.27
2019-06-08T13:58:41.803Z,5.50
2019-06-08T14:01:15.459Z,9.33
2019-06-08T14:03:51.720Z,7.13
2019-06-08T14:06:37.000Z,5.40
2019-06-08T14:09:11.689Z,5.77
2019-06-08T14:11:42.967Z,6.43
2019-06-08T14:14:14.930Z,5.20
2019-06-08T14:16:50.261Z,7.03
2019-06-08T14:19:21.716Z,7.93
2019-06-08T14:21:59.812Z,4.60
2019-06-08T14:24:39.482Z,6.67
2019-06-08T14:27:10.691Z,4.60
2019-06-08T14:29:44.047Z,4.53
2019-06-08T14:32:14.857Z,5.67
2019-06-08T14:34:50.314Z,6.60
2019-06-08T14:37:24.830Z,2.87
2019-06-08T14:39:58.876Z,5.10
2019-06-08T14:42:31.814Z,11.43
2019-06-08T14:45:02.767Z,6.57
2019-06-08T14:47:39.783Z,5.70
2019-06-08T14:50:13.342Z,5.80
2019-06-08T14:52:47.930Z,2.77
2019-06-08T14:55:21.751Z,6.80
2019-06-08T14:57:52.342Z,3.70
2019-06-08T15:00:25.662Z,7.50
2019-06-08T15:03:03.594Z,7.93
2019-06-08T15:05:37.687Z,5.17
2019-06-08T15:08:31.159Z,3.97
2019-06-08T15:11:08.062Z,4.40
2019-06-08T15:13:40.450Z,4.37
2019-06-08T15:16:10.868Z,6.77
2019-06-08T15:18:42.579Z,3.30
2019-06-08T15:21:20.453Z,7.53
2019-06-08T15:23:47.789Z,12.23
2019-06-08T15:26:28.282Z,7.97
2019-06-08T15:28:58.590Z,8.20
2019-06-08T15:31:32.763Z,6.97
2019-06-08T15:34:10.489Z,7.30
2019-06-08T15:36:40.536Z,4.70
2019-06-08T15:39:17.696Z,9.77
2019-06-08T15:41:48.812Z,7.40
2019-06-08T15:44:22.815Z,8.20
2019-06-08T15:46:54.618Z,7.83
2019-06-08T15:49:30.660Z,8.23
2019-06-08T15:52:02.817Z,7.07
2019-06-08T15:54:36.233Z,9.00
2019-06-08T15:57:07.266Z,8.37
2019-06-08T15:59:41.842Z,7.70
2019-06-08T16:02:11.609Z,7.90
2019-06-08T16:05:07.948Z,9.60
2019-06-08T16:07:43.559Z,12.37
2019-06-08T16:10:14.358Z,8.03
2019-06-08T16:12:45.505Z,9.93
2019-06-08T16:15:19.148Z,6.87
2019-06-08T16:17:50.055Z,11.60
2019-06-08T16:20:20.388Z,8.20
2019-06-08T16:22:51.479Z,8.00
2019-06-08T16:25:23.176Z,16.40
2019-06-08T16:27:53.935Z,10.27
2019-06-08T16:30:24.145Z,8.53
2019-06-08T16:32:54.883Z,5.07
2019-06-08T16:35:28.120Z,10.20
2019-06-08T16:37:58.701Z,7.03
2019-06-08T16:40:32.006Z,9.27
2019-06-08T16:43:03.969Z,6.23
2019-06-08T16:45:35.218Z,6.73
2019-06-08T16:48:05.276Z,7.63
2019-06-08T16:50:38.527Z,5.73
2019-06-08T16:53:10.495Z,6.57
2019-06-08T16:55:45.110Z,7.07
2019-06-08T16:58:16.782Z,11.53
2019-06-08T17:00:47.660Z,8.03
2019-06-08T17:03:18.817Z,5.90
2019-06-08T17:05:51.135Z,11.07
2019-06-08T17:08:23.806Z,6.73
2019-06-08T17:10:55.167Z,10.87
2019-06-08T17:13:30.056Z,9.23
2019-06-08T17:16:11.928Z,7.80
2019-06-08T17:18:49.500Z,11.13
2019-06-08T17:21:27.852Z,9.20
2019-06-08T17:23:58.728Z,8.13
2019-06-08T17:26:30.490Z,9.20
2019-06-08T17:29:06.671Z,9.13
2019-06-08T17:31:37.222Z,6.37
2019-06-08T17:34:22.068Z,7.30
2019-06-08T17:36:54.312Z,12.83
2019-06-08T17:39:49.737Z,11.97
2019-06-08T17:42:24.351Z,10.63
2019-06-08T17:45:01.205Z,12.47
2019-06-08T17:47:36.325Z,9.00
2019-06-08T17:50:27.473Z,9.60
2019-06-08T17:52:59.852Z,12.50
2019-06-08T17:55:29.697Z,9.73
2019-06-08T17:57:59.774Z,8.23
2019-06-08T18:00:30.612Z,12.00
2019-06-08T18:03:01.717Z,8.57
2019-06-08T18:05:31.856Z,7.37
2019-06-08T18:08:10.146Z,16.07
2019-06-08T18:10:42.902Z,9.73
2019-06-08T18:13:19.183Z,11.00
2019-06-08T18:15:59.192Z,5.40
2019-06-08T18:18:29.539Z,8.23
2019-06-08T18:21:08.106Z,7.73
2019-06-08T18:23:49.156Z,7.33
2019-06-08T18:26:22.454Z,8.67
2019-06-08T18:28:55.393Z,8.40
2019-06-08T18:31:27.621Z,6.47
2019-06-08T18:34:08.925Z,7.70
2019-06-08T18:36:45.079Z,8.43
2019-06-08T18:39:18.340Z,7.10
2019-06-08T18:42:01.907Z,7.90
2019-06-08T18:44:34.968Z,6.43
2019-06-08T18:47:21.067Z,7.30
2019-06-08T18:50:02.464Z,7.47
2019-06-08T18:52:49.696Z,9.50
2019-06-08T18:55:23.989Z,7.53
2019-06-08T18:57:57.274Z,10.33
2019-06-08T19:00:43.234Z,9.40
2019-06-08T19:03:13.868Z,9.83
2019-06-08T19:05:47.167Z,7.20
2019-06-08T19:08:18.884Z,9.73
2019-06-08T19:10:50.494Z,11.80
2019-06-08T19:13:21.601Z,6.80
2019-06-08T19:16:02.102Z,6.53
2019-06-08T19:18:38.373Z,5.93
2019-06-08T19:21:34.542Z,8.90
2019-06-08T19:24:18.049Z,7.40
2019-06-08T19:29:47.527Z,9.87
2019-06-08T19:32:20.306Z,10.10
2019-06-08T19:34:54.002Z,11.43
2019-06-08T19:37:33.218Z,6.17
2019-06-08T19:40:07.467Z,5.90
2019-06-08T19:42:51.114Z,8.43
2019-06-08T19:45:18.577Z,10.63
2019-06-08T19:47:53.635Z,10.03
2019-06-08T19:50:24.760Z,11.87
2019-06-08T19:52:57.986Z,11.00
2019-06-08T19:55:28.881Z,7.37
2019-06-08T19:58:02.476Z,14.23
2019-06-08T20:00:34.739Z,9.77
2019-06-08T20:03:07.692Z,9.80
2019-06-08T20:05:45.287Z,12.27
2019-06-08T20:08:19.940Z,10.47
2019-06-08T20:10:57.470Z,10.27
2019-06-08T20:13:28.879Z,6.87
2019-06-08T20:16:02.269Z,6.17
2019-06-08T20:18:53.043Z,11.27
2019-06-08T20:21:23.795Z,10.07
2019-06-08T20:23:58.339Z,16.80
2019-06-08T20:26:44.230Z,9.33
2019-06-08T20:29:19.832Z,9.13
2019-06-08T20:31:51.556Z,10.77
2019-06-08T20:34:27.027Z,12.40
2019-06-08T20:37:02.076Z,9.73
2019-06-08T20:39:38.461Z,10.03
2019-06-08T20:42:13.160Z,10.03
2019-06-08T20:44:49.068Z,7.20
2019-06-08T20:47:20.742Z,10.53
2019-06-08T20:49:58.294Z,11.23
2019-06-08T20:52:29.347Z,8.03
2019-06-08T20:55:01.883Z,9.70
2019-06-08T20:57:34.967Z,13.23
2019-06-08T21:00:11.631Z,15.07
2019-06-08T21:02:41.739Z,11.40
2019-06-08T21:05:18.260Z,8.70
2019-06-08T21:07:54.134Z,13.07
2019-06-08T21:10:28.173Z,12.73
2019-06-08T21:13:03.961Z,10.00
2019-06-08T21:15:38.248Z,11.97
2019-06-08T21:18:14.127Z,11.57
2019-06-08T21:20:47.610Z,13.53
2019-06-08T21:23:20.904Z,13.07
2019-06-08T21:25:53.667Z,9.77
2019-06-08T21:28:24.163Z,7.73
2019-06-08T21:30:58.230Z,14.27
2019-06-08T21:33:32.404Z,11.83
2019-06-08T21:36:11.003Z,11.03
2019-06-08T21:38:47.510Z,10.23
2019-06-08T21:41:18.823Z,7.80
2019-06-08T21:43:54.207Z,13.23
2019-06-08T21:46:23.321Z,10.07
2019-06-08T21:48:58.428Z,8.83
2019-06-08T21:51:31.141Z,7.60
2019-06-08T21:54:02.212Z,11.37
2019-06-08T21:56:32.923Z,10.77
2019-06-08T21:59:04.659Z,10.63
2019-06-08T22:01:37.422Z,11.70
2019-06-08T22:04:10.208Z,8.50
2019-06-08T22:06:43.271Z,9.20
2019-06-08T22:09:14.990Z,12.03
2019-06-08T22:12:00.773Z,7.87
2019-06-08T22:14:52.803Z,12.30
2019-06-08T22:17:27.800Z,11.47
2019-06-08T22:20:00.852Z,9.77
2019-06-08T22:22:31.422Z,8.57
2019-06-08T22:25:08.128Z,12.90
2019-06-08T22:27:40.805Z,14.03
2019-06-08T22:30:22.882Z,14.70
2019-06-08T22:32:43.582Z,8.37
2019-06-08T22:35:16.001Z,7.17
2019-06-08T22:37:53.272Z,11.60
2019-06-08T22:40:23.417Z,7.07
2019-06-08T22:42:54.605Z,11.03
2019-06-08T22:45:34.643Z,7.90
2019-06-08T22:48:13.442Z,8.23
2019-06-08T22:50:47.674Z,11.07
2019-06-08T22:53:21.344Z,9.93
2019-06-08T22:55:59.640Z,13.57
2019-06-08T22:58:40.600Z,9.97
2019-06-08T23:01:13.724Z,7.57
2019-06-08T23:03:43.837Z,12.40
2019-06-08T23:06:27.950Z,10.13
2019-06-08T23:09:00.942Z,8.97
2019-06-08T23:11:31.123Z,12.80
2019-06-08T23:14:04.088Z,9.40
2019-06-08T23:16:34.751Z,7.30
2019-06-08T23:19:07.839Z,8.43
2019-06-08T23:21:38.369Z,7.73
2019-06-08T23:24:13.226Z,10.50
2019-06-08T23:26:48.002Z,10.70
2019-06-08T23:29:18.197Z,9.30
2019-06-08T23:31:50.487Z,11.20
2019-06-08T23:37:24.511Z,15.03
2019-06-08T23:39:57.939Z,12.13
2019-06-08T23:42:31.810Z,13.33
2019-06-08T23:45:03.784Z,14.20
2019-06-08T23:47:34.933Z,16.43
2019-06-08T23:50:09.879Z,11.67
2019-06-08T23:52:47.545Z,9.87
2019-06-08T23:55:18.174Z,14.07
2019-06-08T23:57:51.559Z,10.50
